createdAt,value
2022-12-18T00:03:34.919Z,102004.56
2022-12-18T00:07:36.613Z,101998.47
2022-12-18T00:11:38.138Z,101997.41
2022-12-18T00:15:40.654Z,102007.50
2022-12-18T00:19:42.281Z,102024.66
2022-12-18T00:23:45.281Z,102030.44
2022-12-18T00:27:46.783Z,102031.09
2022-12-18T00:31:48.827Z,102033.47
2022-12-18T00:35:50.355Z,102035.00
2022-12-18T00:39:51.843Z,102043.44
2022-12-18T00:43:54.962Z,102052.88
2022-12-18T00:47:57.018Z,102052.63
2022-12-18T00:51:58.556Z,102059.31
2022-12-18T00:56:00.157Z,102066.84
2022-12-18T01:00:02.106Z,102059.00
2022-12-18T01:04:04.424Z,102057.25
2022-12-18T01:08:05.990Z,102053.53
2022-12-18T01:12:07.813Z,102063.66
2022-12-18T01:16:09.918Z,102058.44
2022-12-18T01:20:13.525Z,102065.00
2022-12-18T01:24:15.011Z,102070.00
2022-12-18T01:28:16.960Z,102080.31
2022-12-18T01:32:18.559Z,102081.69
2022-12-18T01:36:23.935Z,102089.97
2022-12-18T01:40:25.478Z,102085.53
2022-12-18T01:45:04.861Z,102086.94
2022-12-18T01:49:06.314Z,102080.56
2022-12-18T01:53:15.843Z,102079.31
2022-12-18T01:57:17.623Z,102079.06
2022-12-18T02:01:19.719Z,102090.75
2022-12-18T02:05:36.101Z,102091.81
2022-12-18T02:09:47.954Z,102085.97
2022-12-18T02:14:17.772Z,102093.00
2022-12-18T02:18:24.796Z,102091.22
2022-12-18T02:22:55.200Z,102090.66
2022-12-18T02:27:01.704Z,102082.19
2022-12-18T02:31:08.992Z,102088.91
2022-12-18T02:35:17.689Z,102101.28
2022-12-18T02:39:22.131Z,102101.41
2022-12-18T02:43:34.092Z,102089.03
2022-12-18T02:47:39.982Z,102099.31
2022-12-18T02:51:57.091Z,102096.19
2022-12-18T02:56:20.399Z,102089.25
2022-12-18T03:00:38.623Z,102100.47
2022-12-18T03:05:18.971Z,102098.06
2022-12-18T03:09:36.387Z,102094.84
2022-12-18T03:13:51.893Z,102092.63
2022-12-18T03:18:00.293Z,102094.41
2022-12-18T03:22:07.906Z,102102.06
2022-12-18T03:26:23.003Z,102109.78
2022-12-18T03:30:32.136Z,102108.03
2022-12-18T03:34:37.373Z,102098.88
2022-12-18T03:38:42.154Z,102113.03
2022-12-18T03:43:04.353Z,102111.16
2022-12-18T03:47:28.492Z,102120.56
2022-12-18T03:51:51.862Z,102117.91
2022-12-18T03:55:54.093Z,102133.09
2022-12-18T04:00:01.634Z,102120.13
2022-12-18T04:04:17.557Z,102129.94
2022-12-18T04:08:21.586Z,102127.59
2022-12-18T04:12:31.489Z,102122.81
2022-12-18T04:16:33.074Z,102132.59
2022-12-18T04:20:38.020Z,102134.69
2022-12-18T04:24:39.713Z,102150.72
2022-12-18T04:28:51.773Z,102145.59
2022-12-18T04:32:53.358Z,102142.97
2022-12-18T04:36:56.577Z,102140.91
2022-12-18T04:40:58.820Z,102146.81
2022-12-18T04:45:02.629Z,102148.22
2022-12-18T04:49:04.105Z,102149.53
2022-12-18T04:53:05.795Z,102162.09
2022-12-18T04:57:07.374Z,102158.72
2022-12-18T05:01:09.817Z,102150.00
2022-12-18T05:05:11.505Z,102148.94
2022-12-18T05:09:13.148Z,102148.13
2022-12-18T05:13:14.649Z,102162.41
2022-12-18T05:17:16.295Z,102155.22
2022-12-18T05:21:17.955Z,102152.47
2022-12-18T05:25:20.401Z,102151.34
2022-12-18T05:29:22.488Z,102154.63
2022-12-18T05:33:26.997Z,102165.63
2022-12-18T05:37:28.552Z,102157.69
2022-12-18T05:41:30.204Z,102153.78
2022-12-18T05:45:31.880Z,102158.84
2022-12-18T05:49:33.365Z,102159.75
2022-12-18T05:53:36.098Z,102159.91
2022-12-18T05:57:37.738Z,102162.41
2022-12-18T06:01:39.334Z,102167.44
2022-12-18T06:05:44.302Z,102162.22
2022-12-18T06:09:45.809Z,102170.03
2022-12-18T06:13:53.489Z,102172.50
2022-12-18T06:17:57.837Z,102174.22
2022-12-18T06:21:59.832Z,102175.75
2022-12-18T06:26:10.351Z,102188.47
2022-12-18T06:30:13.101Z,102186.47
2022-12-18T06:34:15.555Z,102182.78
2022-12-18T06:38:17.196Z,102200.53
2022-12-18T06:42:18.757Z,102199.56
2022-12-18T06:46:20.339Z,102195.41
2022-12-18T06:50:21.826Z,102193.94
2022-12-18T06:54:23.305Z,102202.81
2022-12-18T06:58:25.451Z,102208.47
2022-12-18T07:02:27.285Z,102206.63
2022-12-18T07:06:28.945Z,102217.72
2022-12-18T07:10:30.499Z,102219.34
2022-12-18T07:14:32.080Z,102222.13
2022-12-18T07:18:33.675Z,102228.63
2022-12-18T07:22:35.226Z,102220.28
2022-12-18T07:26:36.719Z,102213.66
2022-12-18T07:30:39.277Z,102220.31
2022-12-18T07:34:40.996Z,102218.78
2022-12-18T07:38:43.015Z,102224.56
2022-12-18T07:42:44.527Z,102235.75
2022-12-18T07:46:46.071Z,102231.22
2022-12-18T07:50:47.813Z,102226.94
2022-12-18T07:54:50.863Z,102240.66
2022-12-18T07:58:52.412Z,102231.03
2022-12-18T08:02:54.396Z,102229.72
2022-12-18T08:06:56.073Z,102227.25
2022-12-18T08:10:58.292Z,102214.91
2022-12-18T08:14:59.768Z,102214.47
2022-12-18T08:19:01.309Z,102194.03
2022-12-18T08:23:02.985Z,102193.91
2022-12-18T08:27:28.399Z,102196.22
2022-12-18T08:31:27.303Z,102198.72
2022-12-18T08:35:34.247Z,102204.00
2022-12-18T08:39:37.901Z,102199.03
2022-12-18T08:43:58.110Z,102196.44
2022-12-18T08:47:59.761Z,102194.09
2022-12-18T08:52:01.553Z,102196.50
2022-12-18T08:56:04.274Z,102196.09
2022-12-18T09:00:06.294Z,102197.88
2022-12-18T09:04:09.032Z,102206.97
2022-12-18T09:08:10.644Z,102204.59
2022-12-18T09:12:12.213Z,102202.63
2022-12-18T09:16:13.952Z,102201.53
2022-12-18T09:20:15.460Z,102215.25
2022-12-18T09:24:18.685Z,102224.88
2022-12-18T09:28:20.294Z,102232.38
2022-12-18T09:32:22.592Z,102227.97
2022-12-18T09:36:24.375Z,102232.81
2022-12-18T09:40:29.068Z,102230.56
2022-12-18T09:44:43.039Z,102232.31
2022-12-18T09:48:51.546Z,102222.59
2022-12-18T09:52:57.445Z,102226.09
2022-12-18T09:56:59.070Z,102214.81
2022-12-18T10:01:00.645Z,102220.88
2022-12-18T10:05:15.105Z,102201.19
2022-12-18T10:09:32.613Z,102209.75
2022-12-18T10:13:40.030Z,102195.59
2022-12-18T10:18:02.845Z,102175.75
2022-12-18T10:22:27.402Z,102171.84
2022-12-18T10:26:32.746Z,102171.59
2022-12-18T10:30:34.462Z,102164.59
2022-12-18T10:34:36.126Z,102151.91
2022-12-18T10:38:38.700Z,102148.66
2022-12-18T10:42:42.756Z,102149.78
2022-12-18T10:46:48.950Z,102122.97
2022-12-18T10:51:10.809Z,102130.38
2022-12-18T10:55:17.308Z,102130.53
2022-12-18T10:59:19.383Z,102131.19
2022-12-18T11:03:32.443Z,102122.75
2022-12-18T11:07:50.257Z,102145.19
2022-12-18T11:12:04.723Z,102134.78
2022-12-18T11:16:06.784Z,102125.03
2022-12-18T11:20:24.706Z,102117.84
2022-12-18T11:24:37.327Z,102097.47
2022-12-18T11:28:43.232Z,102099.22
2022-12-18T11:33:04.951Z,102104.88
2022-12-18T11:37:06.539Z,102107.88
2022-12-18T11:41:17.216Z,102098.75
2022-12-18T11:45:26.400Z,102097.47
2022-12-18T11:49:34.112Z,102111.53
2022-12-18T11:53:38.961Z,102098.66
2022-12-18T11:57:46.368Z,102125.09
2022-12-18T12:02:00.747Z,102119.28
2022-12-18T12:06:27.098Z,102114.03
2022-12-18T12:10:35.783Z,102101.19
2022-12-18T12:14:52.059Z,102117.13
2022-12-18T12:19:15.624Z,102128.38
2022-12-18T12:23:40.828Z,102128.59
2022-12-18T12:27:57.077Z,102135.25
2022-12-18T12:32:08.755Z,102134.56
2022-12-18T12:36:30.466Z,102144.69
2022-12-18T12:41:00.546Z,102159.44
2022-12-18T12:45:01.646Z,102167.69
2022-12-18T12:49:05.547Z,102158.72
2022-12-18T12:53:10.344Z,102155.44
2022-12-18T12:57:22.678Z,102150.28
2022-12-18T13:01:38.274Z,102140.47
2022-12-18T13:05:52.268Z,102153.16
2022-12-18T13:10:23.493Z,102124.88
2022-12-18T13:14:38.820Z,102131.97
2022-12-18T13:18:50.970Z,102126.38
2022-12-18T13:22:52.985Z,102137.59
2022-12-18T13:26:55.234Z,102146.53
2022-12-18T13:30:58.599Z,102141.25
2022-12-18T13:35:18.325Z,102150.84
2022-12-18T13:39:28.942Z,102150.84
2022-12-18T13:43:44.332Z,102146.34
2022-12-18T13:47:46.354Z,102130.75
2022-12-18T13:51:50.283Z,102145.56
2022-12-18T13:55:52.775Z,102140.78
2022-12-18T13:59:55.486Z,102138.97
2022-12-18T14:04:20.061Z,102150.66
2022-12-18T14:08:22.145Z,102149.94
2022-12-18T14:12:46.272Z,102150.34
2022-12-18T14:16:49.923Z,102144.53
2022-12-18T14:20:55.849Z,102150.16
2022-12-18T14:25:17.801Z,102147.53
2022-12-18T14:29:27.732Z,102133.50
2022-12-18T14:33:29.271Z,102129.75
2022-12-18T14:37:30.900Z,102119.50
2022-12-18T14:41:33.967Z,102116.56
2022-12-18T14:45:47.041Z,102119.72
2022-12-18T14:49:49.360Z,102126.06
2022-12-18T14:54:08.765Z,102128.63
2022-12-18T14:58:16.641Z,102139.56
2022-12-18T15:02:24.244Z,102154.28
2022-12-18T15:06:35.653Z,102153.91
2022-12-18T15:10:48.279Z,102143.16
2022-12-18T15:14:50.120Z,102126.38
2022-12-18T15:18:54.158Z,102130.56
2022-12-18T15:22:55.977Z,102137.38
2022-12-18T15:26:58.075Z,102108.59
2022-12-18T15:31:25.627Z,102128.31
2022-12-18T15:35:27.533Z,102129.13
2022-12-18T15:39:29.199Z,102128.00
2022-12-18T15:43:34.645Z,102111.47
2022-12-18T15:47:36.285Z,102115.00
2022-12-18T15:51:39.034Z,102093.97
2022-12-18T15:56:01.306Z,102135.41
2022-12-18T16:00:03.793Z,102113.72
2022-12-18T16:04:06.933Z,102104.00
2022-12-18T16:08:08.545Z,102102.28
2022-12-18T16:12:22.804Z,102106.50
2022-12-18T16:16:24.377Z,102085.78
2022-12-18T16:20:27.204Z,102097.81
2022-12-18T16:24:31.227Z,102087.97
2022-12-18T16:28:32.747Z,102093.28
2022-12-18T16:32:34.216Z,102103.72
2022-12-18T16:36:35.720Z,102081.19
2022-12-18T16:40:58.884Z,102078.56
2022-12-18T16:45:00.611Z,102084.63
2022-12-18T16:49:02.190Z,102095.00
2022-12-18T16:53:03.744Z,102095.94
2022-12-18T16:57:05.710Z,102093.34
2022-12-18T17:01:11.814Z,102082.84
2022-12-18T17:05:13.501Z,102075.13
2022-12-18T17:09:22.237Z,102059.28
2022-12-18T17:13:27.413Z,102062.03
2022-12-18T17:17:28.934Z,102054.25
2022-12-18T17:21:30.846Z,102063.81
2022-12-18T17:25:32.548Z,102053.66
2022-12-18T17:29:34.551Z,102051.56
2022-12-18T17:33:36.443Z,102052.56
2022-12-18T17:37:41.603Z,102045.59
2022-12-18T17:41:43.337Z,102042.28
2022-12-18T17:45:45.252Z,102067.41
2022-12-18T17:49:46.823Z,102045.88
2022-12-18T17:53:48.802Z,102047.47
2022-12-18T17:57:50.443Z,102031.97
2022-12-18T18:01:52.418Z,102039.09
2022-12-18T18:06:01.590Z,102044.34
2022-12-18T18:10:04.348Z,102034.91
2022-12-18T18:14:11.367Z,102041.63
2022-12-18T18:18:13.698Z,102026.34
2022-12-18T18:22:16.839Z,102022.03
2022-12-18T18:26:19.935Z,102041.09
2022-12-18T18:30:22.386Z,102026.50
2022-12-18T18:34:28.106Z,102011.88
2022-12-18T18:38:29.781Z,102020.66
2022-12-18T18:42:31.451Z,101985.25
2022-12-18T18:46:33.425Z,101999.94
2022-12-18T18:50:35.209Z,102000.00
2022-12-18T18:54:36.832Z,101978.34
2022-12-18T18:58:38.583Z,101998.97
2022-12-18T19:02:40.385Z,101981.75
2022-12-18T19:06:42.642Z,101968.69
2022-12-18T19:10:44.592Z,101988.53
